PWSweather.com
Personal Weather Stations
Station Observations
UXOLA
Alcoy, AlcoyES

AlcoyAlcoyES

Lat: 38.70299, Lon: -0.48184

Elevation: 1935

Station Type: PCE FWS-20,

http://www.fiestasalcoy.xyz

Latest ConditionsUpdated 3:15:00 PM GMT+01:01 Tuesday, Nov 12, 2019
Currently Today's Max Today's Min Today's Average
Temperature 57.7°F14.3°C 57.9°F14.4°C 45.3°F7.4°C 53.7°F12.1°C
Dew Point 29.6°F-1.3°C 31.0°F-0.6°C 27.2°F-2.7°C 30.1°F-1.1°C
Winds 6.0 mph SE9.7 kmh SE 7.6 mph -12.2 kmh - - 3.9 mph 6.3 kmh
Wind Gusts 9.8 mph15.8 kmh 13.0 mph20.9 kmh - -
Humidity 34% 52% 33% 40%
Pressure 29.88 in1011.9 mb 29.94 in1013.9 mb 29.88 in1011.9 mb -
Hour Temp Dew Point Humidity Winds Wind Gusts Pressure Precip Precip Rate Daily Precip Total
03:15 PM 57.7°F14.3°C 29.6°F-1.3°C 34% 6.0 mph SE9.7 kmh SE 9.8 mph15.8 kmh 29.88 in1011.9 mb 0.00 in0.0 mm 0.00 in0.0 mm 0.00 in0.0 mm
03:00 PM 57.2°F14.0°C 29.1°F-1.6°C 34% 3.8 mph N6.1 kmh N 13.0 mph20.9 kmh 29.88 in1011.9 mb 0.00 in0.0 mm 0.00 in0.0 mm 0.00 in0.0 mm
02:45 PM 57.6°F14.2°C 29.4°F-1.4°C 34% 4.5 mph E7.2 kmh E 9.2 mph14.8 kmh 29.88 in1011.9 mb 0.00 in0.0 mm 0.00 in0.0 mm 0.00 in0.0 mm
02:30 PM 57.9°F14.4°C 29.7°F-1.3°C 34% 4.5 mph NNE7.2 kmh NNE 6.9 mph11.1 kmh 29.88 in1011.9 mb 0.00 in0.0 mm 0.00 in0.0 mm 0.00 in0.0 mm
02:15 PM 57.7°F14.3°C 28.8°F-1.8°C 33% 3.8 mph ESE6.1 kmh ESE 6.9 mph11.1 kmh 29.88 in1011.9 mb 0.00 in0.0 mm 0.00 in0.0 mm 0.00 in0.0 mm
02:00 PM 57.4°F14.1°C 29.3°F-1.5°C 34% 2.2 mph SE3.5 kmh SE 8.3 mph13.4 kmh 29.89 in1012.2 mb 0.00 in0.0 mm 0.00 in0.0 mm 0.00 in0.0 mm
01:45 PM 56.7°F13.7°C 27.9°F-2.3°C 33% 1.6 mph W2.6 kmh W 7.6 mph12.2 kmh 29.89 in1012.2 mb 0.00 in0.0 mm 0.00 in0.0 mm 0.00 in0.0 mm
01:30 PM 56.8°F13.8°C 28.1°F-2.2°C 33% 5.4 mph SE8.7 kmh SE 9.2 mph14.8 kmh 29.90 in1012.5 mb 0.00 in0.0 mm 0.00 in0.0 mm 0.00 in0.0 mm
01:15 PM 56.1°F13.4°C 28.9°F-1.7°C 35% 2.2 mph E3.5 kmh E 6.9 mph11.1 kmh 29.91 in1012.9 mb 0.00 in0.0 mm 0.00 in0.0 mm 0.00 in0.0 mm
01:00 PM 55.8°F13.2°C 27.8°F-2.3°C 34% 3.1 mph SE5.0 kmh SE 6.9 mph11.1 kmh 29.92 in1013.2 mb 0.00 in0.0 mm 0.00 in0.0 mm 0.00 in0.0 mm
12:45 PM 55.0°F12.8°C 27.2°F-2.7°C 34% 3.1 mph E5.0 kmh E 9.2 mph14.8 kmh 29.93 in1013.5 mb 0.00 in0.0 mm 0.00 in0.0 mm 0.00 in0.0 mm
12:30 PM 54.1°F12.3°C 28.5°F-1.9°C 37% Calm Calm 6.0 mph9.7 kmh 29.93 in1013.5 mb 0.00 in0.0 mm 0.00 in0.0 mm 0.00 in0.0 mm
12:15 PM 53.6°F12.0°C 27.3°F-2.6°C 36% 3.1 mph SE5.0 kmh SE 7.6 mph12.2 kmh 29.93 in1013.5 mb 0.00 in0.0 mm 0.00 in0.0 mm 0.00 in0.0 mm
12:00 PM 53.6°F12.0°C 28.6°F-1.9°C 38% 3.8 mph SE6.1 kmh SE 6.9 mph11.1 kmh 29.94 in1013.9 mb 0.00 in0.0 mm 0.00 in0.0 mm 0.00 in0.0 mm
11:45 AM 53.4°F11.9°C 29.1°F-1.6°C 39% 3.1 mph SE5.0 kmh SE 5.4 mph8.7 kmh 29.94 in1013.9 mb 0.00 in0.0 mm 0.00 in0.0 mm 0.00 in0.0 mm
11:30 AM 52.9°F11.6°C 29.8°F-1.2°C 41% 0.7 mph SW1.1 kmh SW 3.8 mph6.1 kmh 29.94 in1013.9 mb 0.00 in0.0 mm 0.00 in0.0 mm 0.00 in0.0 mm
11:15 AM 52.2°F11.2°C 29.8°F-1.2°C 42% 3.1 mph ESE5.0 kmh ESE 6.0 mph9.7 kmh 29.94 in1013.9 mb 0.00 in0.0 mm 0.00 in0.0 mm 0.00 in0.0 mm
11:00 AM 51.6°F10.9°C 29.9°F-1.2°C 43% 1.6 mph SSE2.6 kmh SSE 5.4 mph8.7 kmh 29.94 in1013.9 mb 0.00 in0.0 mm 0.00 in0.0 mm 0.00 in0.0 mm
10:45 AM 50.9°F10.5°C 29.2°F-1.6°C 43% 2.2 mph ESE3.5 kmh ESE 6.0 mph9.7 kmh 29.94 in1013.9 mb 0.00 in0.0 mm 0.00 in0.0 mm 0.00 in0.0 mm
10:30 AM 50.5°F10.3°C 29.4°F-1.4°C 44% 3.1 mph SE5.0 kmh SE 5.4 mph8.7 kmh 29.94 in1013.9 mb 0.00 in0.0 mm 0.00 in0.0 mm 0.00 in0.0 mm
10:15 AM 49.6°F9.8°C 29.2°F-1.6°C 45% 0.7 mph NW1.1 kmh NW 6.9 mph11.1 kmh 29.94 in1013.9 mb 0.00 in0.0 mm 0.00 in0.0 mm 0.00 in0.0 mm
10:00 AM 48.6°F9.2°C 29.3°F-1.5°C 47% 2.2 mph NW3.5 kmh NW 4.5 mph7.2 kmh 29.94 in1013.9 mb 0.00 in0.0 mm 0.00 in0.0 mm 0.00 in0.0 mm
09:45 AM 47.7°F8.7°C 28.9°F-1.7°C 48% 3.8 mph WNW6.1 kmh WNW 6.9 mph11.1 kmh 29.93 in1013.5 mb 0.00 in0.0 mm 0.00 in0.0 mm 0.00 in0.0 mm
09:30 AM 47.3°F8.5°C 29.6°F-1.3°C 50% 3.8 mph NW6.1 kmh NW 8.3 mph13.4 kmh 29.94 in1013.9 mb 0.00 in0.0 mm 0.00 in0.0 mm 0.00 in0.0 mm
09:15 AM 46.0°F7.8°C 28.9°F-1.7°C 51% 2.2 mph NW3.5 kmh NW 11.4 mph18.3 kmh 29.94 in1013.9 mb 0.00 in0.0 mm 0.00 in0.0 mm 0.00 in0.0 mm
09:00 AM 45.3°F7.4°C 28.7°F-1.8°C 52% 7.6 mph N12.2 kmh N 9.2 mph14.8 kmh 29.94 in1013.9 mb 0.00 in0.0 mm 0.00 in0.0 mm 0.00 in0.0 mm
08:45 AM 54.1°F12.3°C 31.0°F-0.6°C 41% 4.5 mph ENE7.2 kmh ENE 7.6 mph12.2 kmh 29.91 in1012.9 mb 0.00 in0.0 mm 0.00 in0.0 mm 0.00 in0.0 mm
08:30 AM 54.1°F12.3°C 31.0°F-0.6°C 41% 4.5 mph ENE7.2 kmh ENE 7.6 mph12.2 kmh 29.91 in1012.9 mb 0.00 in0.0 mm 0.00 in0.0 mm 0.00 in0.0 mm
08:15 AM 54.1°F12.3°C 31.0°F-0.6°C 41% 4.5 mph ENE7.2 kmh ENE 7.6 mph12.2 kmh 29.91 in1012.9 mb 0.00 in0.0 mm 0.00 in0.0 mm 0.00 in0.0 mm
08:00 AM 54.1°F12.3°C 31.0°F-0.6°C 41% 4.5 mph ENE7.2 kmh ENE 7.6 mph12.2 kmh 29.91 in1012.9 mb 0.00 in0.0 mm 0.00 in0.0 mm 0.00 in0.0 mm
07:45 AM 54.1°F12.3°C 31.0°F-0.6°C 41% 4.5 mph ENE7.2 kmh ENE 7.6 mph12.2 kmh 29.91 in1012.9 mb 0.00 in0.0 mm 0.00 in0.0 mm 0.00 in0.0 mm
07:30 AM 54.1°F12.3°C 31.0°F-0.6°C 41% 4.5 mph ENE7.2 kmh ENE 7.6 mph12.2 kmh 29.91 in1012.9 mb 0.00 in0.0 mm 0.00 in0.0 mm 0.00 in0.0 mm
07:15 AM 54.1°F12.3°C 31.0°F-0.6°C 41% 4.5 mph ENE7.2 kmh ENE 7.6 mph12.2 kmh 29.91 in1012.9 mb 0.00 in0.0 mm 0.00 in0.0 mm 0.00 in0.0 mm
07:00 AM 54.1°F12.3°C 31.0°F-0.6°C 41% 4.5 mph ENE7.2 kmh ENE 7.6 mph12.2 kmh 29.91 in1012.9 mb 0.00 in0.0 mm 0.00 in0.0 mm 0.00 in0.0 mm
06:45 AM 54.1°F12.3°C 31.0°F-0.6°C 41% 4.5 mph ENE7.2 kmh ENE 7.6 mph12.2 kmh 29.91 in1012.9 mb 0.00 in0.0 mm 0.00 in0.0 mm 0.00 in0.0 mm
06:30 AM 54.1°F12.3°C 31.0°F-0.6°C 41% 4.5 mph ENE7.2 kmh ENE 7.6 mph12.2 kmh 29.91 in1012.9 mb 0.00 in0.0 mm 0.00 in0.0 mm 0.00 in0.0 mm
06:15 AM 54.1°F12.3°C 31.0°F-0.6°C 41% 4.5 mph ENE7.2 kmh ENE 7.6 mph12.2 kmh 29.91 in1012.9 mb 0.00 in0.0 mm 0.00 in0.0 mm 0.00 in0.0 mm
06:00 AM 54.1°F12.3°C 31.0°F-0.6°C 41% 4.5 mph ENE7.2 kmh ENE 7.6 mph12.2 kmh 29.91 in1012.9 mb 0.00 in0.0 mm 0.00 in0.0 mm 0.00 in0.0 mm
05:45 AM 54.1°F12.3°C 31.0°F-0.6°C 41% 4.5 mph ENE7.2 kmh ENE 7.6 mph12.2 kmh 29.91 in1012.9 mb 0.00 in0.0 mm 0.00 in0.0 mm 0.00 in0.0 mm
05:30 AM 54.1°F12.3°C 31.0°F-0.6°C 41% 4.5 mph ENE7.2 kmh ENE 7.6 mph12.2 kmh 29.91 in1012.9 mb 0.00 in0.0 mm 0.00 in0.0 mm 0.00 in0.0 mm
05:15 AM 54.1°F12.3°C 31.0°F-0.6°C 41% 4.5 mph ENE7.2 kmh ENE 7.6 mph12.2 kmh 29.91 in1012.9 mb 0.00 in0.0 mm 0.00 in0.0 mm 0.00 in0.0 mm
05:00 AM 54.1°F12.3°C 31.0°F-0.6°C 41% 4.5 mph ENE7.2 kmh ENE 7.6 mph12.2 kmh 29.91 in1012.9 mb 0.00 in0.0 mm 0.00 in0.0 mm 0.00 in0.0 mm
04:45 AM 54.1°F12.3°C 31.0°F-0.6°C 41% 4.5 mph ENE7.2 kmh ENE 7.6 mph12.2 kmh 29.91 in1012.9 mb 0.00 in0.0 mm 0.00 in0.0 mm 0.00 in0.0 mm
04:30 AM 54.1°F12.3°C 31.0°F-0.6°C 41% 4.5 mph ENE7.2 kmh ENE 7.6 mph12.2 kmh 29.91 in1012.9 mb 0.00 in0.0 mm 0.00 in0.0 mm 0.00 in0.0 mm
04:15 AM 54.1°F12.3°C 31.0°F-0.6°C 41% 4.5 mph ENE7.2 kmh ENE 7.6 mph12.2 kmh 29.91 in1012.9 mb 0.00 in0.0 mm 0.00 in0.0 mm 0.00 in0.0 mm
04:00 AM 54.1°F12.3°C 31.0°F-0.6°C 41% 4.5 mph ENE7.2 kmh ENE 7.6 mph12.2 kmh 29.91 in1012.9 mb 0.00 in0.0 mm 0.00 in0.0 mm 0.00 in0.0 mm
03:45 AM 54.1°F12.3°C 31.0°F-0.6°C 41% 4.5 mph ENE7.2 kmh ENE 7.6 mph12.2 kmh 29.91 in1012.9 mb 0.00 in0.0 mm 0.00 in0.0 mm 0.00 in0.0 mm
03:30 AM 54.1°F12.3°C 31.0°F-0.6°C 41% 4.5 mph ENE7.2 kmh ENE 7.6 mph12.2 kmh 29.91 in1012.9 mb 0.00 in0.0 mm 0.00 in0.0 mm 0.00 in0.0 mm
03:15 AM 54.1°F12.3°C 31.0°F-0.6°C 41% 4.5 mph ENE7.2 kmh ENE 7.6 mph12.2 kmh 29.91 in1012.9 mb 0.00 in0.0 mm 0.00 in0.0 mm 0.00 in0.0 mm
03:00 AM 54.1°F12.3°C 31.0°F-0.6°C 41% 4.5 mph ENE7.2 kmh ENE 7.6 mph12.2 kmh 29.91 in1012.9 mb 0.00 in0.0 mm 0.00 in0.0 mm 0.00 in0.0 mm
02:45 AM 54.1°F12.3°C 31.0°F-0.6°C 41% 4.5 mph ENE7.2 kmh ENE 7.6 mph12.2 kmh 29.91 in1012.9 mb 0.00 in0.0 mm 0.00 in0.0 mm 0.00 in0.0 mm
02:30 AM 54.1°F12.3°C 31.0°F-0.6°C 41% 4.5 mph ENE7.2 kmh ENE 7.6 mph12.2 kmh 29.91 in1012.9 mb 0.00 in0.0 mm 0.00 in0.0 mm 0.00 in0.0 mm
02:15 AM 54.1°F12.3°C 31.0°F-0.6°C 41% 4.5 mph ENE7.2 kmh ENE 7.6 mph12.2 kmh 29.91 in1012.9 mb 0.00 in0.0 mm 0.00 in0.0 mm 0.00 in0.0 mm
02:00 AM 54.1°F12.3°C 31.0°F-0.6°C 41% 4.5 mph ENE7.2 kmh ENE 7.6 mph12.2 kmh 29.91 in1012.9 mb 0.00 in0.0 mm 0.00 in0.0 mm 0.00 in0.0 mm
01:45 AM 54.1°F12.3°C 31.0°F-0.6°C 41% 4.5 mph ENE7.2 kmh ENE 7.6 mph12.2 kmh 29.91 in1012.9 mb 0.00 in0.0 mm 0.00 in0.0 mm 0.00 in0.0 mm
01:30 AM 54.1°F12.3°C 31.0°F-0.6°C 41% 4.5 mph ENE7.2 kmh ENE 7.6 mph12.2 kmh 29.91 in1012.9 mb 0.00 in0.0 mm 0.00 in0.0 mm 0.00 in0.0 mm
01:15 AM 54.1°F12.3°C 31.0°F-0.6°C 41% 4.5 mph ENE7.2 kmh ENE 7.6 mph12.2 kmh 29.91 in1012.9 mb 0.00 in0.0 mm 0.00 in0.0 mm 0.00 in0.0 mm
01:00 AM 54.1°F12.3°C 31.0°F-0.6°C 41% 4.5 mph ENE7.2 kmh ENE 7.6 mph12.2 kmh 29.91 in1012.9 mb 0.00 in0.0 mm 0.00 in0.0 mm 0.00 in0.0 mm
12:45 AM 54.1°F12.3°C 31.0°F-0.6°C 41% 4.5 mph ENE7.2 kmh ENE 7.6 mph12.2 kmh 29.91 in1012.9 mb 0.00 in0.0 mm 0.00 in0.0 mm 0.00 in0.0 mm
12:30 AM 54.1°F12.3°C 31.0°F-0.6°C 41% 4.5 mph ENE7.2 kmh ENE 7.6 mph12.2 kmh 29.91 in1012.9 mb 0.00 in0.0 mm 0.00 in0.0 mm 0.00 in0.0 mm
12:15 AM 54.1°F12.3°C 31.0°F-0.6°C 41% 4.5 mph ENE7.2 kmh ENE 7.6 mph12.2 kmh 29.91 in1012.9 mb 0.00 in0.0 mm 0.00 in0.0 mm 0.00 in0.0 mm
12:00 AM 54.1°F12.3°C 31.0°F-0.6°C 41% 4.5 mph ENE7.2 kmh ENE 7.6 mph12.2 kmh 29.91 in1012.9 mb 0.00 in0.0 mm 0.00 in0.0 mm 0.00 in0.0 mm